WetterOnline ( https://www.wetteronline.de )

Wetter aktuell Kritzow

Aktuelles Wetter: Pelzerhaken/Neustadt i.H. (2m)

6-stündlich | Neueste Meldungen
Ortszeit Temperatur Wetter
Fr, 26.02. 1:00 7.1° C bedeckt
Do, 25.02. 19:00 12.0° C bewölkt
Do, 25.02. 13:00 12.9° C wolkenlos
Do, 25.02. 7:00 7.7° C wolkenlos
Do, 25.02. 1:00 4.3° C wolkenlos
Mi, 24.02. 19:00 9.5° C bedeckt
Mi, 24.02. 13:00 14.6° C wolkig
Mi, 24.02. 7:00 7.4° C wolkig
Ortszeit Temperatur Wetter
Fr, 26.02. 2:30 6.5° C bedeckt
Fr, 26.02. 2:20 6.5° C bedeckt
Fr, 26.02. 2:10 6.7° C bedeckt
Fr, 26.02. 2:00 7.0° C bedeckt
Fr, 26.02. 1:50 7.0° C bedeckt
Fr, 26.02. 1:40 7.2° C bedeckt
Fr, 26.02. 1:30 7.4° C bedeckt
Fr, 26.02. 1:00 7.1° C bedeckt
Ortszeit Relative Feuchte Sichtweite
Fr, 26.02. 1:00 78% 35 km
Do, 25.02. 19:00 76% 35 km
Do, 25.02. 13:00 68% 22 km
Do, 25.02. 7:00 91% 18 km
Do, 25.02. 1:00 96% 18 km
Mi, 24.02. 19:00 77% 30 km
Mi, 24.02. 13:00 59% 30 km
Mi, 24.02. 7:00 90% 21 km
Ortszeit Relative Feuchte Sichtweite
Fr, 26.02. 2:30 81% 30 km
Fr, 26.02. 2:20 81% -
Fr, 26.02. 2:10 80% -
Fr, 26.02. 2:00 78% 28 km
Fr, 26.02. 1:50 78% -
Fr, 26.02. 1:40 77% -
Fr, 26.02. 1:30 76% 35 km
Fr, 26.02. 1:00 78% 35 km
Ortszeit Niederschlagsmenge Niederschlagsart
Fr, 26.02. 1:00 0.1 l/m2 in 6 Std. Regen
Do, 25.02. 19:00 0.0 l/m2 in 12 Std. -
Do, 25.02. 13:00 0.0 l/m2 in 6 Std. -
Do, 25.02. 7:00 0.0 l/m2 in 12 Std. -
Do, 25.02. 1:00 0.0 l/m2 in 6 Std. -
Mi, 24.02. 19:00 0.0 l/m2 in 12 Std. -
Mi, 24.02. 13:00 0.0 l/m2 in 6 Std. -
Mi, 24.02. 7:00 0.0 l/m2 in 12 Std. -
Ortszeit Niederschlagsmenge Niederschlagsart
Fr, 26.02. 2:30 0.0 l/m2 in 1 Std. -
Fr, 26.02. 2:20 keine Meldung -
Fr, 26.02. 2:10 keine Meldung -
Fr, 26.02. 2:00 0.0 l/m2 in 1 Std. -
Fr, 26.02. 1:50 keine Meldung -
Fr, 26.02. 1:40 keine Meldung -
Fr, 26.02. 1:30 0.0 l/m2 in 1 Std. -
Fr, 26.02. 1:00 0.1 l/m2 in 1 Std. Regen
Ortszeit Stärke Spitze Richtung
km/h Bft. km/h Grad Sektor
Fr, 26.02. 1:00 7 2 28 260° W
Do, 25.02. 19:00 11 2 40 270° W
Do, 25.02. 13:00 19 3 28 230° SW
Do, 25.02. 7:00 14 3 22 230° SW
Do, 25.02. 1:00 4 1 25 210° SW
Mi, 24.02. 19:00 14 3 40 210° SW
Mi, 24.02. 13:00 20 4 31 230° SW
Mi, 24.02. 7:00 13 3 22 230° SW
Ortszeit Stärke Spitze Richtung
km/h Bft. km/h Grad Sektor
Fr, 26.02. 2:30 7 2 18 260° W
Fr, 26.02. 2:20 7 2 - 260° W
Fr, 26.02. 2:10 9 2 - 260° W
Fr, 26.02. 2:00 9 2 19 260° W
Fr, 26.02. 1:50 9 2 - 260° W
Fr, 26.02. 1:40 9 2 - 260° W
Fr, 26.02. 1:30 7 2 18 270° W
Fr, 26.02. 1:00 7 2 17 260° W
Ortszeit Untergrenze Bedeckung Gattung
total tief tief mittel hoch
Fr, 26.02. 1:00 1800 m 8/8 8/8 - - -
Do, 25.02. 19:00 1440 m 7/8 7/8 - - -
Do, 25.02. 13:00 - 0/8 0/8 - - -
Do, 25.02. 7:00 - 0/8 0/8 - - -
Do, 25.02. 1:00 - 0/8 0/8 - - -
Mi, 24.02. 19:00 2100 m 8/8 8/8 - - -
Mi, 24.02. 13:00 9000 m 7/8 0/8 - - -
Mi, 24.02. 7:00 8700 m 8/8 0/8 - - -
Ortszeit Bedeckungsgrad in Achtel und Wolkenuntergrenze
Fr, 26.02. 2:30 8(2400m)
Fr, 26.02. 2:20 8(2400m)
Fr, 26.02. 2:10 8(2400m)
Fr, 26.02. 2:00 1(1500m) 8(2400m)
Fr, 26.02. 1:50 1(1500m) 8(2400m)
Fr, 26.02. 1:40 1(1500m) 8(2400m)
Fr, 26.02. 1:30 2(1320m) 3(1500m) 8(2100m)
Fr, 26.02. 1:00 8(1800m) 8(1800m)
Ortszeit Luftdruck NN (hPa) Tendenz (hPa in 3 Std.)
Fr, 26.02. 1:00 1027 + 0,6
Do, 25.02. 19:00 1025 + 1,7
Do, 25.02. 13:00 1024 - 0,4
Do, 25.02. 7:00 1024 - 0,9
Do, 25.02. 1:00 1026 - 0,7
Mi, 24.02. 19:00 1027 + 0,1
Mi, 24.02. 13:00 1028 - 0,9
Mi, 24.02. 7:00 1029 - 0,7
Ortszeit Luftdruck NN (hPa) Tendenz (hPa in 3 Std.)
Fr, 26.02. 2:30 1027 + 0,3
Fr, 26.02. 2:20 1027 keine Meldung
Fr, 26.02. 2:10 1028 keine Meldung
Fr, 26.02. 2:00 1028 + 0,5
Fr, 26.02. 1:50 1028 keine Meldung
Fr, 26.02. 1:40 1028 keine Meldung
Fr, 26.02. 1:30 1028 + 0,6
Fr, 26.02. 1:00 1027 + 0,6
Ortszeit Schneehöhe (cm)
Fr, 26.02. 1:00 0
Do, 25.02. 19:00 0
Do, 25.02. 13:00 0
Do, 25.02. 7:00 0
Do, 25.02. 1:00 0
Mi, 24.02. 19:00 0
Mi, 24.02. 13:00 0
Mi, 24.02. 7:00 0
Ortszeit Schneehöhe (cm)
Fr, 26.02. 2:30 0
Fr, 26.02. 2:20 0
Fr, 26.02. 2:10 0
Fr, 26.02. 2:00 0
Fr, 26.02. 1:50 0
Fr, 26.02. 1:40 0
Fr, 26.02. 1:30 0
Fr, 26.02. 1:00 0
Link zu dieser Seite / Seite empfehlen

Das Wetter in ...